Time;durP1;ratioP1;P1;durP2;ratioP2;P2;SDS_P1;SDS_P2;PMS_P1;PMS_P2;Temp;Humidity;BMP_temperature;BMP_pressure;BME280_temperature;BME280_humidity;BME280_pressure;Samples;Min_cycle;Max_cycle;Signal;HPM_P1;HPM_P2
2022/10/15 00:02:08;;;;;;;130.23;50.20;;;10.80;99.90;;;;;;4954856;28;20129;-73
2022/10/15 00:04:34;;;;;;;148.48;51.80;;;10.80;99.90;;;;;;4954433;28;20078;-76
2022/10/15 00:07:00;;;;;;;201.65;55.97;;;10.80;99.90;;;;;;4948634;28;20079;-73
2022/10/15 00:09:25;;;;;;;303.25;60.20;;;10.80;99.90;;;;;;4954697;29;20643;-73
2022/10/15 00:11:51;;;;;;;197.68;55.75;;;10.80;99.90;;;;;;4946084;28;20036;-74
2022/10/15 00:14:17;;;;;;;188.07;56.03;;;10.80;99.90;;;;;;4931013;29;20043;-73
2022/10/15 00:16:42;;;;;;;192.65;58.53;;;10.80;99.90;;;;;;4934180;29;20513;-74
2022/10/15 00:19:09;;;;;;;224.18;61.03;;;10.80;99.90;;;;;;4954390;29;20046;-73
2022/10/15 00:21:34;;;;;;;245.20;60.38;;;10.90;99.90;;;;;;4952380;28;20089;-73
2022/10/15 00:24:00;;;;;;;234.90;60.20;;;10.90;99.90;;;;;;4953493;28;20534;-73
2022/10/15 00:26:27;;;;;;;195.45;58.58;;;10.90;99.90;;;;;;4954461;29;20441;-72
2022/10/15 00:28:56;;;;;;;139.13;55.28;;;10.90;99.90;;;;;;4945358;28;20036;-73
2022/10/15 00:31:23;;;;;;;269.58;61.95;;;10.90;99.90;;;;;;4954591;29;20109;-74
2022/10/15 00:33:50;;;;;;;256.20;60.65;;;11.00;99.90;;;;;;4937850;29;20129;-73
2022/10/15 00:36:25;;;;;;;208.50;58.30;;;10.90;99.90;;;;;;4945873;29;20148;-73
2022/10/15 00:38:51;;;;;;;283.60;63.17;;;11.00;99.90;;;;;;4954037;29;20038;-73
2022/10/15 00:41:24;;;;;;;193.90;58.75;;;11.00;99.90;;;;;;4937256;29;20039;-73
2022/10/15 00:43:53;;;;;;;188.20;57.65;;;11.00;99.90;;;;;;4945442;28;20043;-73
2022/10/15 00:46:33;;;;;;;154.57;53.50;;;11.00;99.90;;;;;;4935040;29;20043;-73
2022/10/15 00:49:16;;;;;;;215.57;57.20;;;11.00;99.90;;;;;;4936163;28;20043;-74
2022/10/15 00:51:46;;;;;;;194.65;55.80;;;11.00;99.90;;;;;;4953405;29;20039;-73
2022/10/15 00:54:13;;;;;;;247.85;60.05;;;11.00;99.90;;;;;;4946009;28;20074;-73
2022/10/15 00:56:42;;;;;;;188.25;56.83;;;11.00;99.90;;;;;;4946577;28;20486;-73
2022/10/15 00:59:09;;;;;;;224.13;58.20;;;11.00;99.90;;;;;;4949326;29;20519;-74
2022/10/15 01:01:34;;;;;;;179.52;58.67;;;11.00;99.90;;;;;;4948325;29;20050;-73
2022/10/15 01:04:01;;;;;;;304.73;60.00;;;11.00;99.90;;;;;;4928695;29;20437;-74
2022/10/15 01:06:27;;;;;;;260.98;60.65;;;11.00;99.90;;;;;;4953154;29;20047;-73
2022/10/15 01:08:53;;;;;;;208.07;55.50;;;11.00;99.90;;;;;;4944613;28;20035;-73
2022/10/15 01:11:33;;;;;;;227.45;56.72;;;11.00;99.90;;;;;;4950468;29;20046;-73
2022/10/15 01:14:36;;;;;;;241.90;57.70;;;11.00;99.90;;;;;;4944920;28;20070;-73
2022/10/15 01:17:20;;;;;;;127.28;53.05;;;11.00;99.90;;;;;;4953332;29;20047;-73
2022/10/15 01:20:07;;;;;;;260.70;61.55;;;11.00;99.90;;;;;;4954119;29;20137;-73
2022/10/15 01:23:01;;;;;;;190.80;54.90;;;11.00;99.90;;;;;;4944171;29;20047;-74
2022/10/15 01:25:32;;;;;;;206.82;55.25;;;11.00;99.90;;;;;;4949637;28;20039;-73
2022/10/15 01:28:34;;;;;;;287.98;61.25;;;11.00;99.90;;;;;;4952543;28;20043;-73
2022/10/15 01:31:06;;;;;;;337.80;64.55;;;11.00;99.90;;;;;;4951213;28;20077;-73
2022/10/15 01:33:44;;;;;;;222.88;56.72;;;11.00;99.90;;;;;;4947350;29;20035;-73
2022/10/15 01:36:17;;;;;;;175.30;53.15;;;11.10;99.90;;;;;;4939281;28;20082;-73
2022/10/15 01:38:49;;;;;;;254.80;58.30;;;11.00;99.90;;;;;;4946180;28;20559;-74
2022/10/15 01:41:22;;;;;;;192.27;54.35;;;11.10;99.90;;;;;;4947161;28;20294;-73
2022/10/15 01:43:59;;;;;;;177.00;50.70;;;11.00;99.90;;;;;;4953075;28;20053;-73
2022/10/15 01:46:37;;;;;;;228.82;54.95;;;11.10;99.90;;;;;;4953161;29;20050;-74
2022/10/15 01:49:04;;;;;;;200.90;52.28;;;11.00;99.90;;;;;;4952335;29;20057;-75
2022/10/15 01:51:33;;;;;;;185.45;52.47;;;11.10;99.90;;;;;;4944996;29;20046;-74
2022/10/15 01:54:00;;;;;;;191.02;51.95;;;11.10;99.90;;;;;;4951923;28;20046;-73
2022/10/15 01:56:27;;;;;;;196.75;52.47;;;11.10;99.90;;;;;;4942990;28;20486;-73
2022/10/15 01:58:54;;;;;;;214.32;53.78;;;11.10;99.90;;;;;;4944590;29;20090;-73
2022/10/15 02:01:20;;;;;;;150.07;49.83;;;11.10;99.90;;;;;;4944053;29;20126;-73
2022/10/15 02:03:52;;;;;;;132.07;49.10;;;11.10;99.90;;;;;;4952438;28;20097;-74
2022/10/15 02:06:27;;;;;;;147.52;51.13;;;11.10;99.90;;;;;;4951788;28;20705;-74
2022/10/15 02:09:06;;;;;;;166.52;48.92;;;11.10;99.90;;;;;;4944510;29;20486;-73
2022/10/15 02:11:43;;;;;;;240.10;52.92;;;11.10;99.90;;;;;;4946430;29;20036;-74
2022/10/15 02:14:14;;;;;;;86.40;43.90;;;11.10;99.90;;;;;;4950662;29;20054;-74
2022/10/15 02:16:53;;;;;;;193.73;48.20;;;11.10;99.90;;;;;;4952515;29;20090;-74
2022/10/15 02:19:36;;;;;;;189.95;50.67;;;11.10;99.90;;;;;;4952820;29;20050;-74
2022/10/15 02:22:12;;;;;;;221.40;49.67;;;11.10;99.90;;;;;;4951538;28;20406;-73
2022/10/15 02:24:51;;;;;;;123.63;46.03;;;11.10;99.90;;;;;;4929489;29;20063;-75
2022/10/15 02:27:18;;;;;;;204.30;51.95;;;11.10;99.90;;;;;;4948206;28;20039;-74
2022/10/15 02:29:45;;;;;;;136.18;46.53;;;11.10;99.90;;;;;;4948483;29;20047;-74
2022/10/15 02:32:14;;;;;;;188.27;47.97;;;11.00;99.90;;;;;;4943298;28;20581;-73
2022/10/15 02:34:40;;;;;;;163.10;48.10;;;11.10;99.90;;;;;;4951725;28;20043;-73
2022/10/15 02:37:07;;;;;;;142.20;46.47;;;11.10;99.90;;;;;;4944213;28;20532;-74
2022/10/15 02:39:33;;;;;;;193.05;47.60;;;11.10;99.90;;;;;;4945805;29;20517;-73
2022/10/15 02:41:59;;;;;;;121.95;44.88;;;11.10;99.90;;;;;;4949896;28;20047;-73
2022/10/15 02:44:26;;;;;;;191.90;47.05;;;11.10;99.90;;;;;;4943457;28;20042;-73
2022/10/15 02:46:51;;;;;;;239.32;51.78;;;11.10;99.90;;;;;;4943198;28;20087;-73
2022/10/15 02:49:17;;;;;;;158.80;49.10;;;11.10;99.90;;;;;;4931258;29;20035;-74
2022/10/15 02:51:42;;;;;;;217.60;50.88;;;11.10;99.90;;;;;;4947077;28;20035;-74
2022/10/15 02:54:08;;;;;;;103.07;47.55;;;11.10;99.90;;;;;;4943948;29;20143;-73
2022/10/15 02:56:34;;;;;;;278.30;58.60;;;11.10;99.90;;;;;;4952282;29;20043;-73
2022/10/15 02:59:00;;;;;;;160.85;54.10;;;11.10;99.90;;;;;;4951994;29;20054;-74
2022/10/15 03:01:25;;;;;;;176.32;57.92;;;11.10;99.90;;;;;;4952150;29;20435;-74
2022/10/15 03:03:51;;;;;;;247.65;61.30;;;11.10;99.90;;;;;;4946649;28;20050;-74
2022/10/15 03:06:17;;;;;;;326.88;66.05;;;11.10;99.90;;;;;;4947789;28;20561;-74
2022/10/15 03:08:43;;;;;;;274.30;60.47;;;11.10;99.90;;;;;;4927246;29;20040;-73
2022/10/15 03:11:09;;;;;;;145.82;54.15;;;11.10;99.90;;;;;;4955135;29;20146;-73
2022/10/15 03:13:36;;;;;;;253.50;56.17;;;11.10;99.90;;;;;;4948875;28;20035;-73
2022/10/15 03:16:07;;;;;;;320.00;56.92;;;11.10;99.90;;;;;;4935700;29;20167;-74
2022/10/15 03:18:33;;;;;;;250.70;52.28;;;11.10;99.90;;;;;;4953647;28;20122;-73
2022/10/15 03:20:59;;;;;;;93.45;43.88;;;11.10;99.90;;;;;;4955603;29;20035;-73
2022/10/15 03:23:25;;;;;;;154.55;47.03;;;11.00;99.90;;;;;;4950240;28;20036;-73
2022/10/15 03:25:51;;;;;;;186.13;48.80;;;11.00;99.90;;;;;;4952185;29;20042;-73
2022/10/15 03:28:17;;;;;;;237.05;51.53;;;10.90;99.90;;;;;;4950998;29;20047;-73
2022/10/15 03:30:43;;;;;;;161.80;49.20;;;11.00;99.90;;;;;;4949815;29;20039;-73
2022/10/15 03:33:09;;;;;;;160.25;48.42;;;10.90;99.90;;;;;;4953536;28;20039;-75
2022/10/15 03:35:35;;;;;;;302.05;59.08;;;10.90;99.90;;;;;;4947902;29;20050;-73
2022/10/15 03:38:00;;;;;;;167.10;52.58;;;10.80;99.90;;;;;;4939145;29;20046;-73
2022/10/15 03:40:26;;;;;;;158.00;52.17;;;10.80;99.90;;;;;;4954572;28;20035;-74
2022/10/15 03:42:52;;;;;;;234.55;58.75;;;10.80;99.90;;;;;;4935314;29;20067;-73
2022/10/15 03:45:19;;;;;;;177.30;55.78;;;10.80;99.90;;;;;;4950704;29;20039;-73
2022/10/15 03:47:44;;;;;;;248.68;56.42;;;10.80;99.90;;;;;;4950641;29;20130;-73
2022/10/15 03:50:10;;;;;;;258.70;59.78;;;10.80;99.90;;;;;;4939405;29;20126;-73
2022/10/15 03:52:37;;;;;;;291.40;61.83;;;10.80;99.90;;;;;;4955072;28;20526;-74
2022/10/15 03:55:03;;;;;;;230.25;59.75;;;10.80;99.90;;;;;;4955405;29;20081;-74
2022/10/15 03:57:29;;;;;;;321.70;64.63;;;10.80;99.90;;;;;;4948196;29;20050;-74
2022/10/15 03:59:55;;;;;;;170.40;56.90;;;10.80;99.90;;;;;;4937328;29;20035;-74
2022/10/15 04:02:20;;;;;;;172.05;57.50;;;10.70;99.90;;;;;;4947543;28;20494;-73
2022/10/15 04:04:46;;;;;;;363.33;68.13;;;10.70;99.90;;;;;;4955009;29;20039;-73
2022/10/15 04:07:11;;;;;;;316.80;65.65;;;10.70;99.90;;;;;;4945763;29;20078;-74
2022/10/15 04:09:37;;;;;;;247.70;64.45;;;10.70;99.90;;;;;;4955126;28;20046;-73
2022/10/15 04:12:03;;;;;;;195.85;60.50;;;10.70;99.90;;;;;;4945590;28;20047;-75
2022/10/15 04:14:28;;;;;;;251.75;63.60;;;10.70;99.90;;;;;;4945650;28;20039;-74
2022/10/15 04:16:55;;;;;;;301.63;65.57;;;10.80;99.90;;;;;;4954767;29;20054;-75
2022/10/15 04:19:21;;;;;;;345.95;69.60;;;10.80;99.90;;;;;;4952515;28;20086;-74
2022/10/15 04:21:46;;;;;;;152.88;59.72;;;10.80;99.90;;;;;;4946817;28;20490;-73
2022/10/15 04:24:12;;;;;;;267.60;64.85;;;10.80;99.90;;;;;;4954271;28;20095;-74
2022/10/15 04:26:37;;;;;;;209.88;60.53;;;10.80;99.90;;;;;;4953612;28;20039;-73
2022/10/15 04:29:03;;;;;;;248.98;64.15;;;10.80;99.90;;;;;;4943660;29;20493;-75
2022/10/15 04:31:29;;;;;;;372.50;67.65;;;10.80;99.90;;;;;;4947161;29;20035;-73
2022/10/15 04:33:54;;;;;;;216.05;57.97;;;10.80;99.90;;;;;;4945273;28;20035;-74
2022/10/15 04:36:20;;;;;;;345.73;62.60;;;10.80;99.90;;;;;;4946865;29;20046;-73
2022/10/15 04:38:46;;;;;;;362.88;62.05;;;10.80;99.90;;;;;;4945305;28;20066;-73
2022/10/15 04:41:12;;;;;;;218.52;57.03;;;10.70;99.90;;;;;;4954491;28;20078;-73
2022/10/15 04:43:39;;;;;;;231.70;57.33;;;10.60;99.90;;;;;;4930838;29;20461;-73
2022/10/15 04:46:06;;;;;;;316.20;60.65;;;10.60;99.90;;;;;;4951699;29;20510;-73
2022/10/15 04:48:33;;;;;;;236.70;59.30;;;10.50;99.90;;;;;;4954085;29;20043;-73
2022/10/15 04:51:11;;;;;;;203.27;58.22;;;10.50;99.90;;;;;;4954180;29;20129;-73
2022/10/15 04:53:37;;;;;;;196.57;57.53;;;10.50;99.90;;;;;;4945102;28;20043;-73
2022/10/15 04:56:11;;;;;;;221.15;60.13;;;10.50;99.90;;;;;;4937997;29;20512;-74
2022/10/15 04:58:37;;;;;;;309.00;63.92;;;10.50;99.90;;;;;;4929060;29;20039;-74
2022/10/15 05:01:05;;;;;;;376.30;68.40;;;10.50;99.90;;;;;;4945108;29;20046;-74
2022/10/15 05:03:32;;;;;;;188.82;58.15;;;10.50;99.90;;;;;;4952192;28;20047;-73
2022/10/15 05:06:03;;;;;;;333.50;68.57;;;10.50;99.90;;;;;;4953691;29;20044;-73
2022/10/15 05:08:30;;;;;;;301.70;63.28;;;10.50;99.90;;;;;;4953515;29;20043;-74
2022/10/15 05:11:00;;;;;;;357.20;67.78;;;10.50;99.90;;;;;;4952606;28;20110;-73
2022/10/15 05:13:27;;;;;;;279.45;67.63;;;10.50;99.90;;;;;;4974840;23;20051;-76
2022/10/15 05:15:53;;;;;;;213.98;64.40;;;10.50;99.90;;;;;;4954168;28;20074;-76
2022/10/15 05:18:18;;;;;;;313.42;69.40;;;10.60;99.90;;;;;;4952024;28;20082;-76
2022/10/15 05:20:47;;;;;;;216.90;62.95;;;10.60;99.90;;;;;;4945174;28;20529;-76
2022/10/15 05:23:14;;;;;;;337.38;67.90;;;10.60;99.90;;;;;;4945357;29;20051;-75
2022/10/15 05:25:39;;;;;;;349.15;73.40;;;10.70;99.90;;;;;;4926327;29;20041;-76
2022/10/15 05:28:05;;;;;;;284.45;68.30;;;10.70;99.90;;;;;;4944974;28;20118;-75
2022/10/15 05:30:33;;;;;;;286.77;67.93;;;10.80;99.90;;;;;;4937161;29;20039;-75
2022/10/15 05:32:59;;;;;;;260.40;65.32;;;10.80;99.90;;;;;;4936740;29;20039;-75
2022/10/15 05:35:25;;;;;;;255.13;63.97;;;10.80;99.90;;;;;;4929403;29;20494;-75
2022/10/15 05:37:51;;;;;;;318.83;68.55;;;10.80;99.90;;;;;;4934842;29;21398;-76
2022/10/15 05:40:20;;;;;;;252.85;65.75;;;10.90;99.90;;;;;;4944851;29;20106;-75
2022/10/15 05:42:53;;;;;;;259.88;64.18;;;10.80;99.90;;;;;;4936851;29;20042;-76
2022/10/15 05:45:19;;;;;;;278.13;65.93;;;10.80;99.90;;;;;;4937277;29;20143;-76
2022/10/15 05:47:45;;;;;;;318.42;67.38;;;10.80;99.90;;;;;;4935326;29;20482;-75
2022/10/15 05:50:14;;;;;;;442.48;75.30;;;10.80;99.90;;;;;;4924689;29;20035;-76
2022/10/15 05:52:40;;;;;;;358.42;70.07;;;10.90;99.90;;;;;;4925080;29;20126;-76
2022/10/15 05:55:06;;;;;;;234.18;62.63;;;10.90;99.90;;;;;;4934569;29;20484;-76
2022/10/15 05:57:32;;;;;;;300.42;66.00;;;10.90;99.90;;;;;;4936881;29;20047;-76
2022/10/15 05:59:58;;;;;;;428.98;75.32;;;10.90;99.90;;;;;;4935867;29;20618;-76
2022/10/15 06:02:28;;;;;;;296.70;69.80;;;10.90;99.90;;;;;;4943306;28;20067;-76
2022/10/15 06:04:55;;;;;;;335.45;66.85;;;10.90;99.90;;;;;;4935683;28;20043;-76
2022/10/15 06:07:21;;;;;;;343.40;71.88;;;10.90;99.90;;;;;;4932142;29;20040;-76
2022/10/15 06:09:47;;;;;;;250.65;65.10;;;10.90;99.90;;;;;;4932122;29;20122;-76
2022/10/15 06:12:12;;;;;;;323.65;71.70;;;10.90;99.90;;;;;;4936593;29;20593;-75
2022/10/15 06:14:38;;;;;;;271.48;65.35;;;11.00;99.90;;;;;;4936382;29;20490;-75
2022/10/15 06:17:04;;;;;;;254.35;66.55;;;11.00;99.90;;;;;;4936492;29;20047;-75
2022/10/15 06:19:30;;;;;;;358.73;70.22;;;11.00;99.90;;;;;;4935227;29;20071;-76
2022/10/15 06:21:56;;;;;;;290.30;68.78;;;11.00;99.90;;;;;;4934910;29;20043;-78
2022/10/15 06:24:22;;;;;;;215.55;64.40;;;11.00;99.90;;;;;;4924377;29;20518;-78
2022/10/15 06:26:51;;;;;;;290.70;69.25;;;11.00;99.90;;;;;;4933404;29;20035;-77
2022/10/15 06:29:17;;;;;;;315.35;70.82;;;11.00;99.90;;;;;;4935214;29;20118;-75
2022/10/15 06:31:43;;;;;;;306.65;67.45;;;11.10;99.90;;;;;;4929594;29;20035;-76
2022/10/15 06:34:09;;;;;;;282.30;68.63;;;11.10;99.90;;;;;;4926612;29;20051;-76
2022/10/15 06:36:40;;;;;;;251.48;64.57;;;11.00;99.90;;;;;;4936699;29;20043;-76
2022/10/15 06:39:09;;;;;;;330.45;71.18;;;11.10;99.90;;;;;;4935962;29;20055;-75
2022/10/15 06:41:38;;;;;;;288.25;69.00;;;11.20;99.90;;;;;;4946504;29;20126;-75
2022/10/15 06:44:06;;;;;;;389.63;75.53;;;11.10;99.90;;;;;;4935452;29;20043;-75
2022/10/15 06:46:32;;;;;;;403.80;76.72;;;11.20;99.90;;;;;;4934675;29;20043;-76
2022/10/15 06:48:57;;;;;;;277.58;65.25;;;11.20;99.90;;;;;;4927836;29;20053;-75
2022/10/15 06:51:23;;;;;;;355.20;73.07;;;11.30;99.90;;;;;;4935328;28;20051;-75
2022/10/15 06:53:49;;;;;;;356.20;74.35;;;11.20;99.90;;;;;;4944103;29;20042;-76
2022/10/15 06:56:15;;;;;;;179.68;64.05;;;11.20;99.90;;;;;;4936268;29;20039;-76
2022/10/15 06:58:42;;;;;;;282.17;68.63;;;11.30;99.90;;;;;;4933917;28;20052;-75
2022/10/15 07:01:09;;;;;;;339.80;70.95;;;11.30;99.90;;;;;;4949092;28;20040;-75
2022/10/15 07:03:35;;;;;;;403.48;75.13;;;11.30;99.90;;;;;;4929639;29;20035;-76
2022/10/15 07:06:03;;;;;;;388.10;76.63;;;11.40;99.90;;;;;;4949421;28;20087;-76
2022/10/15 07:08:28;;;;;;;272.42;67.93;;;11.40;99.90;;;;;;4930050;29;20130;-75
2022/10/15 07:11:00;;;;;;;247.38;68.35;;;11.40;99.90;;;;;;4936566;29;20074;-75
2022/10/15 07:13:30;;;;;;;407.92;78.15;;;11.40;99.90;;;;;;4934194;29;20039;-76
2022/10/15 07:15:55;;;;;;;265.23;67.03;;;11.40;99.90;;;;;;4930026;29;20043;-75
2022/10/15 07:18:21;;;;;;;279.13;69.40;;;11.50;99.90;;;;;;4935767;29;20575;-75
2022/10/15 07:20:47;;;;;;;220.75;65.05;;;11.50;99.90;;;;;;4936018;29;20103;-76
2022/10/15 07:23:13;;;;;;;206.27;63.88;;;11.50;99.90;;;;;;4936261;29;20409;-76
2022/10/15 07:25:39;;;;;;;192.27;63.35;;;11.50;99.90;;;;;;4951676;29;20046;-76
2022/10/15 07:28:05;;;;;;;301.98;71.75;;;11.50;99.90;;;;;;4926396;29;20047;-76
2022/10/15 07:30:31;;;;;;;279.45;69.43;;;11.60;99.90;;;;;;4954117;28;20035;-76
2022/10/15 07:32:58;;;;;;;330.85;75.78;;;11.60;99.90;;;;;;4946076;28;20050;-76
2022/10/15 07:35:25;;;;;;;360.75;76.95;;;11.60;99.90;;;;;;4937447;29;20047;-76
2022/10/15 07:37:51;;;;;;;256.27;71.55;;;11.60;99.90;;;;;;4943965;29;20043;-76
2022/10/15 07:40:17;;;;;;;264.17;72.22;;;11.70;99.90;;;;;;4937100;29;20102;-76
2022/10/15 07:42:43;;;;;;;317.65;76.65;;;11.80;99.90;;;;;;4942914;28;20095;-76
2022/10/15 07:45:09;;;;;;;303.02;73.43;;;11.80;99.90;;;;;;4943066;28;20483;-76
2022/10/15 07:47:35;;;;;;;271.25;69.63;;;11.90;99.90;;;;;;4952194;28;20577;-75
2022/10/15 07:50:00;;;;;;;200.75;64.10;;;11.90;99.90;;;;;;4950359;28;20043;-77
2022/10/15 07:52:29;;;;;;;257.58;69.60;;;11.90;99.90;;;;;;4946388;28;20036;-78
2022/10/15 07:54:57;;;;;;;192.20;66.07;;;12.00;99.90;;;;;;4933335;29;20039;-79
2022/10/15 07:57:23;;;;;;;247.77;70.13;;;12.00;99.90;;;;;;4928033;29;20051;-75
2022/10/15 07:59:49;;;;;;;246.32;69.03;;;12.10;99.90;;;;;;4951626;29;20039;-75
2022/10/15 08:02:16;;;;;;;271.95;70.25;;;12.10;99.90;;;;;;4951308;28;20031;-76
2022/10/15 08:04:51;;;;;;;265.02;68.47;;;12.10;99.90;;;;;;4939443;29;20074;-77
2022/10/15 08:07:36;;;;;;;;;;;;;;;;;;;;;
2022/10/15 08:10:10;;;;;;;277.50;71.82;;;12.10;99.90;;;;;;4949657;28;20047;-76
2022/10/15 08:12:36;;;;;;;261.83;67.18;;;12.20;99.90;;;;;;4926667;29;20040;-76
2022/10/15 08:15:02;;;;;;;251.80;67.00;;;12.20;99.90;;;;;;4950552;28;20106;-75
2022/10/15 08:17:37;;;;;;;256.25;66.75;;;12.20;99.90;;;;;;4929939;29;20039;-79
2022/10/15 08:20:30;;;;;;;284.52;67.78;;;12.30;99.90;;;;;;4938906;29;20051;-78
2022/10/15 08:23:18;;;;;;;263.10;64.03;;;12.40;99.90;;;;;;4956506;28;20043;-78
2022/10/15 08:26:02;;;;;;;248.57;64.40;;;12.40;99.90;;;;;;4949841;28;20040;-77
2022/10/15 08:32:27;;;;;;;214.18;56.05;;;12.40;99.90;;;;;;4895941;29;20048;-77
2022/10/15 08:35:37;;;;;;;204.45;58.30;;;12.50;99.90;;;;;;4882345;29;20048;-78
2022/10/15 08:38:28;;;;;;;208.82;55.85;;;12.50;99.90;;;;;;4889313;29;20053;-79
2022/10/15 08:40:56;;;;;;;179.25;52.60;;;12.50;99.90;;;;;;4885515;29;20496;-76
2022/10/15 08:43:41;;;;;;;165.95;52.47;;;12.50;99.90;;;;;;4897134;29;20097;-76
2022/10/15 08:46:34;;;;;;;209.43;51.10;;;12.50;99.90;;;;;;4908891;29;20051;-76
2022/10/15 08:49:03;;;;;;;181.10;51.67;;;12.50;99.90;;;;;;4926636;29;20058;-76
2022/10/15 08:51:52;;;;;;;184.35;49.95;;;12.50;99.90;;;;;;4927527;29;20039;-76
2022/10/15 08:54:26;;;;;;;192.43;49.88;;;12.50;99.90;;;;;;4930096;28;20071;-76
2022/10/15 08:57:10;;;;;;;156.18;46.05;;;12.60;99.90;;;;;;4945136;29;20130;-77
2022/10/15 08:59:58;;;;;;;171.98;46.97;;;12.50;99.90;;;;;;4935391;29;20040;-76
2022/10/15 09:02:38;;;;;;;135.02;42.08;;;12.60;99.90;;;;;;4929109;28;20047;-76
2022/10/15 09:05:37;;;;;;;116.75;41.38;;;12.60;99.90;;;;;;4929169;29;20066;-76
2022/10/15 09:08:22;;;;;;;107.97;38.97;;;12.60;99.90;;;;;;4951465;29;20134;-76
2022/10/15 09:11:14;;;;;;;92.05;37.70;;;12.60;99.90;;;;;;4928398;29;20035;-76
2022/10/15 09:13:43;;;;;;;84.97;35.95;;;12.70;99.90;;;;;;4919158;29;20050;-77
2022/10/15 09:16:16;;;;;;;118.40;36.95;;;12.70;99.90;;;;;;4934156;29;20154;-76
2022/10/15 09:18:47;;;;;;;127.13;39.00;;;12.70;99.90;;;;;;4924329;29;20042;-76
2022/10/15 09:21:22;;;;;;;82.38;34.17;;;12.80;99.90;;;;;;4926180;29;20195;-76
2022/10/15 09:23:48;;;;;;;97.80;35.55;;;12.80;99.90;;;;;;4937208;29;20502;-76
2022/10/15 09:26:35;;;;;;;87.78;34.90;;;12.80;99.90;;;;;;4932956;29;20042;-81
2022/10/15 09:34:13;;;;;;;;;;;;;;;;;;;;;
2022/10/15 09:38:02;;;;;;;;;;;;;;;;;;;;;
2022/10/15 09:41:52;;;;;;;64.50;32.42;;;13.10;99.90;;;;;;4866323;29;20109;-78
2022/10/15 09:53:13;;;;;;;;;;;;;;;;;;;;;
2022/10/15 10:08:24;;;;;;;;;;;;;;;;;;;;;
2022/10/15 10:12:07;;;;;;;60.03;28.02;;;13.80;99.90;;;;;;4755860;29;20051;-79
2022/10/15 10:15:04;;;;;;;57.28;27.60;;;14.20;99.90;;;;;;4764397;29;20277;-78
2022/10/15 10:18:41;;;;;;;54.53;24.52;;;14.40;99.90;;;;;;4733829;30;20035;-82
2022/10/15 10:29:07;;;;;;;44.95;24.40;;;14.40;99.90;;;;;;4797641;29;20054;-78
2022/10/15 10:31:41;;;;;;;47.45;23.50;;;14.40;99.90;;;;;;4823395;29;20052;-76
2022/10/15 10:34:14;;;;;;;40.10;22.30;;;14.40;99.90;;;;;;4884225;29;20083;-75
2022/10/15 10:36:47;;;;;;;39.15;22.27;;;14.30;99.90;;;;;;4937883;29;20086;-75
2022/10/15 10:39:29;;;;;;;35.08;21.30;;;14.20;99.90;;;;;;4952628;28;20050;-76
2022/10/15 10:42:23;;;;;;;28.90;20.02;;;14.20;99.90;;;;;;4929753;29;20106;-76
2022/10/15 10:45:18;;;;;;;29.92;19.05;;;14.20;99.90;;;;;;4937004;29;20043;-76
2022/10/15 10:47:46;;;;;;;31.17;20.02;;;14.20;99.90;;;;;;4937605;29;20138;-77
2022/10/15 10:50:39;;;;;;;28.83;19.80;;;14.20;99.90;;;;;;4932008;29;20172;-76
2022/10/15 10:53:26;;;;;;;35.25;21.58;;;14.10;99.90;;;;;;4933413;29;20409;-76
2022/10/15 10:55:57;;;;;;;31.65;21.63;;;14.20;99.90;;;;;;4927878;29;20043;-76
2022/10/15 10:58:26;;;;;;;34.00;20.90;;;14.20;99.90;;;;;;4921476;29;20044;-76
2022/10/15 11:00:55;;;;;;;34.20;21.20;;;14.20;99.90;;;;;;4931641;29;20053;-76
2022/10/15 11:03:37;;;;;;;29.85;20.58;;;14.20;99.90;;;;;;4922126;29;20461;-76
2022/10/15 11:06:30;;;;;;;30.53;20.60;;;14.20;99.90;;;;;;4933729;29;20101;-76
2022/10/15 11:09:22;;;;;;;30.35;20.45;;;14.30;99.90;;;;;;4923580;29;20040;-76
2022/10/15 11:12:12;;;;;;;28.60;19.85;;;14.30;99.90;;;;;;4931485;28;20157;-80
2022/10/15 11:14:50;;;;;;;27.27;19.23;;;14.40;99.90;;;;;;4958083;23;20051;-77
2022/10/15 11:17:53;;;;;;;29.08;19.88;;;14.40;99.90;;;;;;4951987;29;20042;-77
2022/10/15 11:20:38;;;;;;;28.08;19.08;;;14.50;99.90;;;;;;4940373;29;20051;-77
2022/10/15 11:23:28;;;;;;;30.98;19.08;;;14.40;99.90;;;;;;4939195;29;20082;-76
2022/10/15 11:26:31;;;;;;;27.77;19.13;;;14.40;99.90;;;;;;4946716;29;20454;-76
2022/10/15 11:29:18;;;;;;;31.05;20.48;;;14.40;99.90;;;;;;4943380;29;20486;-76
2022/10/15 11:31:56;;;;;;;34.65;19.30;;;14.40;99.90;;;;;;4950582;29;20036;-77
2022/10/15 11:34:56;;;;;;;31.50;20.02;;;14.40;99.90;;;;;;4946183;28;20044;-76
2022/10/15 11:37:55;;;;;;;29.63;20.27;;;14.40;99.90;;;;;;4961320;28;20702;-76
2022/10/15 11:40:53;;;;;;;34.28;19.55;;;14.50;99.90;;;;;;4926583;29;20039;-76
2022/10/15 11:43:50;;;;;;;34.55;21.42;;;14.60;99.90;;;;;;4914891;29;20052;-77
2022/10/15 11:46:46;;;;;;;32.97;20.27;;;14.70;99.90;;;;;;4938468;29;20075;-77
2022/10/15 11:49:34;;;;;;;38.15;20.45;;;14.70;99.90;;;;;;4957426;29;20477;-77
2022/10/15 11:52:02;;;;;;;30.60;19.85;;;14.80;99.90;;;;;;4945556;29;20078;-77
2022/10/15 11:54:52;;;;;;;37.10;20.45;;;14.80;99.90;;;;;;4951843;29;20057;-76
2022/10/15 11:57:19;;;;;;;30.30;18.67;;;14.80;99.90;;;;;;4945411;29;20483;-77
2022/10/15 11:59:53;;;;;;;25.98;18.05;;;14.80;99.90;;;;;;4940094;29;20165;-77
2022/10/15 12:02:25;;;;;;;30.23;18.63;;;14.80;99.90;;;;;;4943258;29;20038;-77
2022/10/15 12:04:55;;;;;;;46.03;19.70;;;14.70;99.90;;;;;;4950716;28;20055;-77
2022/10/15 12:07:36;;;;;;;37.70;19.77;;;14.80;99.90;;;;;;4945166;29;20047;-76
2022/10/15 12:10:10;;;;;;;34.10;20.58;;;14.80;99.90;;;;;;4953252;29;20046;-76
2022/10/15 12:12:48;;;;;;;51.70;20.67;;;14.80;99.90;;;;;;4949375;29;20039;-77
2022/10/15 12:15:24;;;;;;;53.22;21.52;;;14.70;99.90;;;;;;4939994;29;20049;-78
2022/10/15 12:18:00;;;;;;;42.15;21.00;;;14.70;99.90;;;;;;4953369;29;20057;-78
2022/10/15 12:20:27;;;;;;;48.58;20.25;;;14.70;99.90;;;;;;4939056;29;20035;-78
2022/10/15 12:22:59;;;;;;;33.80;19.73;;;14.80;99.90;;;;;;4952000;29;20045;-77
2022/10/15 12:25:33;;;;;;;58.47;21.88;;;14.80;99.90;;;;;;4948827;29;20091;-77
2022/10/15 12:28:11;;;;;;;54.25;21.60;;;14.70;99.90;;;;;;4953227;29;20410;-76
2022/10/15 12:30:36;;;;;;;63.17;21.15;;;14.70;99.90;;;;;;4945717;29;20486;-77
2022/10/15 12:33:19;;;;;;;33.67;19.08;;;14.60;99.90;;;;;;4922483;29;20036;-76
2022/10/15 12:35:53;;;;;;;57.80;21.05;;;14.70;99.90;;;;;;4930905;29;20485;-77
2022/10/15 12:38:40;;;;;;;38.97;19.42;;;14.60;99.90;;;;;;4946099;29;20043;-76
2022/10/15 12:41:09;;;;;;;53.15;19.77;;;14.60;99.90;;;;;;4946684;29;20130;-77
2022/10/15 12:43:39;;;;;;;31.40;17.90;;;14.60;99.90;;;;;;4953674;29;20043;-77
2022/10/15 12:46:07;;;;;;;37.78;17.55;;;14.60;99.90;;;;;;4952881;29;20484;-77
2022/10/15 12:48:35;;;;;;;35.60;18.70;;;14.60;99.90;;;;;;4952960;29;20062;-77
2022/10/15 12:51:16;;;;;;;43.78;19.50;;;14.60;99.90;;;;;;4952745;29;20040;-77
2022/10/15 12:53:43;;;;;;;51.15;19.20;;;14.50;99.90;;;;;;4951172;29;20036;-76
2022/10/15 12:56:12;;;;;;;28.77;17.98;;;14.60;99.90;;;;;;4919574;29;20040;-77
2022/10/15 12:58:42;;;;;;;39.25;18.88;;;14.50;99.90;;;;;;4954332;28;20079;-77
2022/10/15 13:01:14;;;;;;;34.88;19.55;;;14.60;99.90;;;;;;4919832;29;20074;-77
2022/10/15 13:03:51;;;;;;;45.53;19.30;;;14.50;99.90;;;;;;4919431;29;20192;-77
2022/10/15 13:06:20;;;;;;;41.10;19.30;;;14.50;99.90;;;;;;4937812;29;20044;-76
2022/10/15 13:09:28;;;;;;;65.45;21.70;;;14.60;99.90;;;;;;4943880;29;20046;-77
2022/10/15 13:11:57;;;;;;;45.78;18.73;;;14.60;99.90;;;;;;4928139;29;20043;-75
2022/10/15 13:14:47;;;;;;;44.17;18.83;;;14.50;99.90;;;;;;4941972;29;20405;-75
2022/10/15 13:17:17;;;;;;;34.72;17.90;;;14.60;99.90;;;;;;4945921;29;20168;-77
2022/10/15 13:19:57;;;;;;;51.05;18.73;;;14.60;99.90;;;;;;4950347;29;20046;-78
2022/10/15 13:22:26;;;;;;;39.60;18.60;;;14.60;99.90;;;;;;4960966;28;20159;-78
2022/10/15 13:24:54;;;;;;;37.28;18.23;;;14.60;99.90;;;;;;4939857;29;20422;-77
2022/10/15 13:27:24;;;;;;;29.30;16.02;;;14.60;99.90;;;;;;4945032;29;20110;-77
2022/10/15 13:30:00;;;;;;;48.58;18.23;;;14.60;99.90;;;;;;4936663;29;20046;-78
2022/10/15 13:32:35;;;;;;;36.28;15.75;;;14.70;99.90;;;;;;4935057;29;20066;-78
2022/10/15 13:35:08;;;;;;;33.85;15.35;;;14.70;99.90;;;;;;4937402;29;20054;-77